Time;durP1;ratioP1;P1;durP2;ratioP2;P2;SDS_P1;SDS_P2;PMS_P1;PMS_P2;Temp;Humidity;BMP_temperature;BMP_pressure;BME280_temperature;BME280_humidity;BME280_pressure;Samples;Min_cycle;Max_cycle;Signal;HPM_P1;HPM_P2
2022/09/30 00:01:16;;;;;;;1.80;1.70;;;;;;;;;;5030527;28;20953;-60
2022/09/30 00:03:43;;;;;;;1.40;1.40;;;;;;;;;;5027044;28;20251;-60
2022/09/30 00:06:10;;;;;;;1.60;1.60;;;;;;;;;;5027364;28;20209;-61
2022/09/30 00:08:38;;;;;;;2.27;2.00;;;;;;;;;;5029014;28;20196;-60
2022/09/30 00:11:07;;;;;;;1.73;1.63;;;;;;;;;;5026633;28;20204;-60
2022/09/30 00:13:34;;;;;;;3.20;2.00;;;;;;;;;;5027090;28;20546;-60
2022/09/30 00:16:03;;;;;;;3.13;1.60;;;;;;;;;;5028574;28;20712;-60
2022/09/30 00:18:31;;;;;;;1.67;1.33;;;;;;;;;;5026587;28;20215;-60
2022/09/30 00:20:58;;;;;;;1.87;1.73;;;;;;;;;;5028756;28;20205;-60
2022/09/30 00:23:26;;;;;;;1.93;1.80;;;;;;;;;;5027463;28;20644;-59
2022/09/30 00:25:58;;;;;;;10.13;1.50;;;;;;;;;;5028271;28;20232;-60
2022/09/30 00:28:25;;;;;;;1.57;1.47;;;;;;;;;;5028257;28;20277;-60
2022/09/30 00:30:52;;;;;;;1.20;1.20;;;;;;;;;;5027080;28;20208;-60
2022/09/30 00:33:21;;;;;;;1.80;1.70;;;;;;;;;;5028547;28;20535;-60
2022/09/30 00:35:48;;;;;;;1.77;1.67;;;;;;;;;;5027515;28;20323;-61
2022/09/30 00:38:15;;;;;;;2.50;2.03;;;;;;;;;;5028449;28;20236;-60
2022/09/30 00:40:42;;;;;;;1.60;1.50;;;;;;;;;;5027589;28;20618;-59
2022/09/30 00:43:13;;;;;;;1.77;1.67;;;;;;;;;;5027627;28;20228;-60
2022/09/30 00:45:41;;;;;;;2.73;1.83;;;;;;;;;;5025872;28;20291;-60
2022/09/30 00:48:12;;;;;;;1.87;1.77;;;;;;;;;;5027800;28;20200;-60
2022/09/30 00:50:44;;;;;;;2.47;1.87;;;;;;;;;;5028537;28;20709;-60
2022/09/30 00:53:14;;;;;;;2.00;1.90;;;;;;;;;;5026453;28;20287;-60
2022/09/30 00:55:45;;;;;;;2.20;1.80;;;;;;;;;;5028670;28;20212;-60
2022/09/30 00:58:15;;;;;;;1.73;1.67;;;;;;;;;;5027753;28;20630;-61
2022/09/30 01:00:42;;;;;;;1.50;1.27;;;;;;;;;;5027510;28;20215;-61
2022/09/30 01:03:10;;;;;;;1.77;1.67;;;;;;;;;;5027146;28;20258;-61
2022/09/30 01:05:37;;;;;;;1.20;1.20;;;;;;;;;;5027241;28;20219;-60
2022/09/30 01:08:07;;;;;;;1.60;1.50;;;;;;;;;;5029729;28;20197;-60
2022/09/30 01:10:34;;;;;;;1.40;1.40;;;;;;;;;;5026917;28;20204;-60
2022/09/30 01:13:01;;;;;;;1.70;1.53;;;;;;;;;;5029611;28;20209;-60
2022/09/30 01:15:35;;;;;;;3.37;2.20;;;;;;;;;;5028521;28;20205;-60
2022/09/30 01:18:05;;;;;;;3.10;1.70;;;;;;;;;;5019535;28;20243;-60
2022/09/30 01:20:57;;;;;;;3.63;1.60;;;;;;;;;;5027694;28;20208;-60
2022/09/30 01:23:43;;;;;;;2.27;1.80;;;;;;;;;;4997987;28;20302;-60
2022/09/30 01:26:19;;;;;;;1.53;1.17;;;;;;;;;;5026735;28;20232;-60
2022/09/30 01:29:05;;;;;;;6.73;2.10;;;;;;;;;;5026916;28;20207;-60
2022/09/30 01:31:41;;;;;;;2.10;2.00;;;;;;;;;;5026623;28;20211;-60
2022/09/30 01:34:12;;;;;;;3.07;1.77;;;;;;;;;;5026872;28;20307;-60
2022/09/30 01:36:45;;;;;;;5.10;2.07;;;;;;;;;;5026234;28;22046;-60
2022/09/30 01:39:18;;;;;;;1.30;1.30;;;;;;;;;;5026257;28;20677;-60
2022/09/30 01:41:46;;;;;;;2.87;2.10;;;;;;;;;;5025045;28;20588;-60
2022/09/30 01:44:16;;;;;;;3.27;1.77;;;;;;;;;;5027296;28;20200;-60
2022/09/30 01:46:47;;;;;;;1.90;1.80;;;;;;;;;;5026556;28;20307;-60
2022/09/30 01:49:17;;;;;;;3.23;2.17;;;;;;;;;;5027369;28;20548;-60
2022/09/30 01:51:48;;;;;;;3.20;2.20;;;;;;;;;;5027089;28;20212;-60
2022/09/30 01:54:19;;;;;;;1.70;1.67;;;;;;;;;;5026623;28;20209;-60
2022/09/30 01:56:47;;;;;;;2.20;2.10;;;;;;;;;;5026851;28;20234;-60
2022/09/30 01:59:16;;;;;;;2.10;1.97;;;;;;;;;;5026365;28;20208;-60
2022/09/30 02:01:47;;;;;;;4.73;2.10;;;;;;;;;;5026401;28;20216;-59
2022/09/30 02:04:18;;;;;;;1.83;1.73;;;;;;;;;;5027184;28;20236;-58
2022/09/30 02:06:47;;;;;;;2.20;2.10;;;;;;;;;;5026671;28;20220;-59
2022/09/30 02:09:17;;;;;;;1.90;1.80;;;;;;;;;;5025577;28;20891;-59
2022/09/30 02:11:44;;;;;;;1.93;1.83;;;;;;;;;;5026499;28;20677;-59
2022/09/30 02:14:14;;;;;;;3.27;1.97;;;;;;;;;;5026819;28;20597;-59
2022/09/30 02:16:43;;;;;;;2.67;2.47;;;;;;;;;;5026242;28;20211;-59
2022/09/30 02:19:17;;;;;;;5.90;4.20;;;;;;;;;;5026907;28;20200;-59
2022/09/30 02:21:45;;;;;;;2.37;2.20;;;;;;;;;;5026429;28;20278;-59
2022/09/30 02:24:15;;;;;;;4.07;2.63;;;;;;;;;;5026842;28;20201;-59
2022/09/30 02:26:45;;;;;;;2.60;2.40;;;;;;;;;;5026472;28;20247;-59
2022/09/30 02:29:16;;;;;;;3.67;2.97;;;;;;;;;;5024494;28;20298;-58
2022/09/30 02:31:45;;;;;;;2.03;1.93;;;;;;;;;;5026755;28;20208;-58
2022/09/30 02:34:15;;;;;;;2.80;2.57;;;;;;;;;;5025865;28;20212;-59
2022/09/30 02:36:44;;;;;;;2.17;2.07;;;;;;;;;;5025518;28;20946;-59
2022/09/30 02:39:14;;;;;;;2.20;1.97;;;;;;;;;;5026770;28;20220;-58
2022/09/30 02:41:44;;;;;;;3.50;2.33;;;;;;;;;;5028061;28;20689;-59
2022/09/30 02:44:11;;;;;;;2.30;2.20;;;;;;;;;;5027326;28;20203;-59
2022/09/30 02:46:44;;;;;;;2.23;1.97;;;;;;;;;;5029498;28;20807;-58
2022/09/30 02:49:17;;;;;;;3.00;2.80;;;;;;;;;;5029971;28;20208;-59
2022/09/30 02:51:50;;;;;;;2.37;2.17;;;;;;;;;;5030000;28;20220;-58
2022/09/30 02:54:21;;;;;;;4.77;2.10;;;;;;;;;;5031095;28;20591;-59
2022/09/30 02:56:50;;;;;;;7.07;2.40;;;;;;;;;;5027406;28;20254;-58
2022/09/30 02:59:18;;;;;;;2.33;2.10;;;;;;;;;;5029076;28;20232;-59
2022/09/30 03:01:45;;;;;;;3.03;2.53;;;;;;;;;;5030264;28;20208;-58
2022/09/30 03:04:14;;;;;;;2.10;2.00;;;;;;;;;;5029473;28;20232;-59
2022/09/30 03:06:41;;;;;;;3.07;2.10;;;;;;;;;;5030599;28;20208;-58
2022/09/30 03:09:09;;;;;;;2.10;1.97;;;;;;;;;;5030251;28;20597;-59
2022/09/30 03:11:37;;;;;;;2.53;2.33;;;;;;;;;;5027888;28;20208;-59
2022/09/30 03:14:19;;;;;;;2.07;1.63;;;;;;;;;;5029255;28;20212;-58
2022/09/30 03:17:04;;;;;;;2.33;2.13;;;;;;;;;;5028876;28;20205;-59
2022/09/30 03:19:41;;;;;;;5.93;1.87;;;;;;;;;;5029328;28;20196;-59
2022/09/30 03:22:18;;;;;;;2.10;2.00;;;;;;;;;;5030308;28;20230;-59
2022/09/30 03:24:56;;;;;;;2.27;2.13;;;;;;;;;;5028730;28;20204;-59
2022/09/30 03:27:27;;;;;;;3.63;2.43;;;;;;;;;;5029973;28;20200;-59
2022/09/30 03:29:58;;;;;;;3.33;2.03;;;;;;;;;;5027815;28;20215;-59
2022/09/30 03:32:34;;;;;;;2.80;2.20;;;;;;;;;;5028536;28;20212;-59
2022/09/30 03:35:07;;;;;;;3.13;2.50;;;;;;;;;;5029711;28;20678;-59
2022/09/30 03:37:38;;;;;;;5.13;2.27;;;;;;;;;;5028780;28;20228;-60
2022/09/30 03:40:10;;;;;;;2.40;2.13;;;;;;;;;;5028386;28;20204;-58
2022/09/30 03:42:39;;;;;;;2.83;2.57;;;;;;;;;;5027831;28;20240;-59
2022/09/30 03:45:08;;;;;;;3.10;2.70;;;;;;;;;;5028933;28;20208;-59
2022/09/30 03:47:38;;;;;;;2.20;2.10;;;;;;;;;;5028860;28;20205;-58
2022/09/30 03:50:09;;;;;;;2.97;2.77;;;;;;;;;;5028882;28;20299;-58
2022/09/30 03:52:36;;;;;;;5.83;2.93;;;;;;;;;;5026423;28;20683;-58
2022/09/30 03:55:06;;;;;;;2.33;2.17;;;;;;;;;;5024817;28;20200;-59
2022/09/30 03:57:33;;;;;;;2.50;2.40;;;;;;;;;;5028535;28;20210;-59
2022/09/30 04:00:01;;;;;;;2.77;2.57;;;;;;;;;;5028194;28;20197;-58
2022/09/30 04:02:28;;;;;;;6.43;2.53;;;;;;;;;;5028081;28;20211;-59
2022/09/30 04:04:55;;;;;;;2.70;2.50;;;;;;;;;;5027768;28;20208;-59
2022/09/30 04:07:23;;;;;;;5.40;3.20;;;;;;;;;;5028573;28;20205;-59
2022/09/30 04:09:50;;;;;;;4.40;2.80;;;;;;;;;;5028772;28;20205;-59
2022/09/30 04:12:18;;;;;;;2.87;2.67;;;;;;;;;;5028600;28;20207;-59
2022/09/30 04:14:45;;;;;;;3.03;2.73;;;;;;;;;;5026945;28;20208;-59
2022/09/30 04:17:12;;;;;;;4.37;2.83;;;;;;;;;;5027819;28;20213;-59
2022/09/30 04:19:39;;;;;;;2.23;2.13;;;;;;;;;;5028584;28;20228;-59
2022/09/30 04:22:07;;;;;;;2.90;2.70;;;;;;;;;;5028356;28;20315;-59
2022/09/30 04:24:35;;;;;;;2.33;2.20;;;;;;;;;;5028307;28;20215;-59
2022/09/30 04:27:06;;;;;;;2.80;2.60;;;;;;;;;;5026749;28;20619;-58
2022/09/30 04:29:33;;;;;;;2.30;2.20;;;;;;;;;;5027828;28;20300;-59
2022/09/30 04:32:00;;;;;;;2.90;2.63;;;;;;;;;;5027918;28;20212;-59
2022/09/30 04:34:27;;;;;;;3.03;2.73;;;;;;;;;;5027942;28;20201;-59
2022/09/30 04:36:54;;;;;;;2.73;2.17;;;;;;;;;;5025282;28;20823;-59
2022/09/30 04:39:21;;;;;;;8.70;3.27;;;;;;;;;;5028036;28;20250;-59
2022/09/30 04:41:50;;;;;;;3.77;2.97;;;;;;;;;;5026869;28;20204;-59
2022/09/30 04:44:17;;;;;;;3.73;3.23;;;;;;;;;;5028462;28;20208;-59
2022/09/30 04:46:44;;;;;;;2.93;2.70;;;;;;;;;;5027129;28;20222;-64
2022/09/30 04:49:11;;;;;;;2.53;2.33;;;;;;;;;;5027497;28;20208;-59
2022/09/30 04:51:42;;;;;;;2.80;2.40;;;;;;;;;;5027673;28;20927;-58
2022/09/30 04:54:09;;;;;;;4.23;2.50;;;;;;;;;;5027487;28;20208;-59
2022/09/30 04:56:36;;;;;;;3.23;2.93;;;;;;;;;;5027194;28;20208;-58
2022/09/30 04:59:05;;;;;;;2.80;2.60;;;;;;;;;;5023635;28;20250;-59
2022/09/30 05:01:32;;;;;;;14.73;2.90;;;;;;;;;;5027555;28;20662;-58
2022/09/30 05:04:00;;;;;;;3.90;3.00;;;;;;;;;;5026512;28;20224;-60
2022/09/30 05:06:27;;;;;;;5.37;2.83;;;;;;;;;;5027534;28;20208;-59
2022/09/30 05:08:54;;;;;;;2.60;2.47;;;;;;;;;;5025187;28;20204;-59
2022/09/30 05:11:22;;;;;;;2.73;2.53;;;;;;;;;;5027550;28;20551;-59
2022/09/30 05:13:49;;;;;;;4.50;2.77;;;;;;;;;;5027216;28;20635;-58
2022/09/30 05:16:18;;;;;;;2.87;2.67;;;;;;;;;;5026271;28;20274;-58
2022/09/30 05:18:45;;;;;;;4.07;3.20;;;;;;;;;;5027034;28;20224;-58
2022/09/30 05:21:13;;;;;;;2.87;2.77;;;;;;;;;;5027408;28;20204;-58
2022/09/30 05:23:40;;;;;;;2.97;2.73;;;;;;;;;;5026451;28;20208;-59
2022/09/30 05:26:07;;;;;;;3.53;2.80;;;;;;;;;;5026652;28;20238;-58
2022/09/30 05:28:34;;;;;;;3.70;2.37;;;;;;;;;;5027346;28;20208;-59
2022/09/30 05:31:02;;;;;;;2.80;2.57;;;;;;;;;;5028138;28;20219;-59
2022/09/30 05:33:34;;;;;;;6.87;3.03;;;;;;;;;;5027356;28;20211;-59
2022/09/30 05:36:02;;;;;;;3.37;2.43;;;;;;;;;;5025669;28;20215;-59
2022/09/30 05:38:29;;;;;;;2.80;2.60;;;;;;;;;;5026262;28;20232;-59
2022/09/30 05:40:56;;;;;;;3.13;2.83;;;;;;;;;;5027844;28;20204;-58
2022/09/30 05:43:23;;;;;;;5.33;2.63;;;;;;;;;;5027686;28;20207;-58
2022/09/30 05:45:52;;;;;;;7.47;2.37;;;;;;;;;;5027802;28;20425;-58
2022/09/30 05:48:20;;;;;;;5.13;2.87;;;;;;;;;;5027722;28;20868;-58
2022/09/30 05:50:49;;;;;;;5.60;2.90;;;;;;;;;;5027921;28;20306;-58
2022/09/30 05:53:25;;;;;;;3.03;2.87;;;;;;;;;;5026700;28;20270;-58
2022/09/30 05:55:52;;;;;;;2.47;2.30;;;;;;;;;;5025778;28;20734;-58
2022/09/30 05:58:20;;;;;;;3.10;2.90;;;;;;;;;;5027888;28;20220;-58
2022/09/30 06:00:47;;;;;;;3.13;2.83;;;;;;;;;;5027880;28;20294;-58
2022/09/30 06:03:15;;;;;;;3.20;2.97;;;;;;;;;;5027205;28;20228;-58
2022/09/30 06:05:43;;;;;;;5.10;3.00;;;;;;;;;;5027965;28;20204;-58
2022/09/30 06:08:12;;;;;;;3.70;3.07;;;;;;;;;;5027942;28;20295;-58
2022/09/30 06:10:41;;;;;;;3.13;2.93;;;;;;;;;;5028133;28;20204;-58
2022/09/30 06:13:08;;;;;;;3.50;3.17;;;;;;;;;;5024753;28;20201;-59
2022/09/30 06:15:36;;;;;;;4.23;3.10;;;;;;;;;;5028014;28;20196;-59
2022/09/30 06:18:04;;;;;;;2.97;2.77;;;;;;;;;;5031865;28;20659;-59
2022/09/30 06:20:31;;;;;;;4.57;2.90;;;;;;;;;;5032063;28;20220;-58
2022/09/30 06:22:59;;;;;;;2.70;2.50;;;;;;;;;;5031550;28;20200;-59
2022/09/30 06:25:28;;;;;;;3.70;3.37;;;;;;;;;;5032088;28;20259;-59
2022/09/30 06:27:55;;;;;;;7.63;3.10;;;;;;;;;;5031674;28;20231;-59
2022/09/30 06:30:22;;;;;;;5.97;2.80;;;;;;;;;;5031806;28;20208;-59
2022/09/30 06:32:50;;;;;;;3.40;3.10;;;;;;;;;;5031488;28;20212;-59
2022/09/30 06:35:18;;;;;;;3.60;3.30;;;;;;;;;;5031274;28;20291;-59
2022/09/30 06:37:45;;;;;;;4.20;3.00;;;;;;;;;;5031805;28;20239;-59
2022/09/30 06:40:13;;;;;;;2.90;2.70;;;;;;;;;;5031477;28;20228;-59
2022/09/30 06:42:41;;;;;;;5.47;3.50;;;;;;;;;;5031324;28;20693;-58
2022/09/30 06:45:10;;;;;;;5.57;3.00;;;;;;;;;;5031055;28;20551;-59
2022/09/30 06:47:37;;;;;;;4.13;3.10;;;;;;;;;;5031707;28;20216;-59
2022/09/30 06:50:04;;;;;;;2.57;2.40;;;;;;;;;;5031493;28;20262;-59
2022/09/30 06:52:31;;;;;;;3.67;2.93;;;;;;;;;;5031444;28;20208;-59
2022/09/30 06:54:58;;;;;;;3.67;3.37;;;;;;;;;;5031435;28;20697;-59
2022/09/30 06:57:26;;;;;;;2.80;2.60;;;;;;;;;;5031127;28;20223;-59
2022/09/30 06:59:55;;;;;;;2.60;2.40;;;;;;;;;;5031509;28;20242;-59
2022/09/30 07:02:22;;;;;;;3.20;2.90;;;;;;;;;;5031343;28;20274;-59
2022/09/30 07:04:49;;;;;;;3.90;3.50;;;;;;;;;;5031239;28;20205;-59
2022/09/30 07:07:19;;;;;;;5.03;3.30;;;;;;;;;;5030888;28;20204;-59
2022/09/30 07:09:46;;;;;;;3.90;3.50;;;;;;;;;;5031242;28;20701;-59
2022/09/30 07:12:13;;;;;;;3.73;3.43;;;;;;;;;;5031018;28;20287;-59
2022/09/30 07:14:40;;;;;;;3.27;3.00;;;;;;;;;;5030811;28;20208;-58
2022/09/30 07:17:08;;;;;;;3.40;3.20;;;;;;;;;;5031235;28;20208;-59
2022/09/30 07:19:35;;;;;;;3.77;3.47;;;;;;;;;;5031081;28;20232;-59
2022/09/30 07:24:43;;;;;;;6.37;4.00;;;;;;;;;;5031591;28;20240;-59
2022/09/30 07:27:12;;;;;;;5.00;3.93;;;;;;;;;;5030201;28;20602;-59
2022/09/30 07:29:39;;;;;;;4.30;3.90;;;;;;;;;;5030869;28;20283;-59
2022/09/30 07:32:08;;;;;;;4.03;3.67;;;;;;;;;;5031341;28;20231;-60
2022/09/30 07:34:36;;;;;;;3.90;3.70;;;;;;;;;;5031772;28;20232;-60
2022/09/30 07:37:03;;;;;;;3.80;3.50;;;;;;;;;;5031428;28;20219;-59
2022/09/30 07:39:31;;;;;;;11.27;3.93;;;;;;;;;;5031396;28;20220;-62
2022/09/30 07:41:58;;;;;;;4.27;3.87;;;;;;;;;;5030629;28;20204;-60
2022/09/30 07:44:25;;;;;;;4.03;3.67;;;;;;;;;;5030458;28;20211;-60
2022/09/30 07:46:53;;;;;;;4.00;3.60;;;;;;;;;;5031244;28;20227;-60
2022/09/30 07:49:24;;;;;;;3.43;3.13;;;;;;;;;;5030498;28;20216;-60
2022/09/30 07:51:52;;;;;;;2.93;2.73;;;;;;;;;;5028662;28;20228;-60
2022/09/30 07:54:21;;;;;;;3.23;3.00;;;;;;;;;;5026462;28;20348;-59
2022/09/30 07:56:48;;;;;;;3.63;3.17;;;;;;;;;;5030158;28;20200;-59
2022/09/30 07:59:15;;;;;;;4.07;3.50;;;;;;;;;;5028359;28;20712;-59
2022/09/30 08:01:43;;;;;;;2.63;2.43;;;;;;;;;;5033851;28;20216;-59
2022/09/30 08:04:10;;;;;;;6.77;3.60;;;;;;;;;;5032455;28;20232;-60
2022/09/30 08:06:40;;;;;;;3.07;2.80;;;;;;;;;;5029384;28;20212;-59
2022/09/30 08:09:07;;;;;;;3.37;3.07;;;;;;;;;;5029985;28;20212;-59
2022/09/30 08:11:35;;;;;;;7.17;3.50;;;;;;;;;;5029953;28;20204;-59
2022/09/30 08:14:02;;;;;;;3.23;3.03;;;;;;;;;;5029538;28;20246;-59
2022/09/30 08:16:29;;;;;;;3.27;3.00;;;;;;;;;;5029950;28;20200;-59
2022/09/30 08:18:56;;;;;;;3.17;2.87;;;;;;;;;;5029492;28;20204;-59
2022/09/30 08:21:24;;;;;;;3.57;2.80;;;;;;;;;;5029615;28;20209;-59
2022/09/30 08:23:52;;;;;;;4.00;2.73;;;;;;;;;;5028013;28;20208;-64
2022/09/30 08:26:19;;;;;;;3.37;3.17;;;;;;;;;;5027178;28;20255;-60
2022/09/30 08:28:47;;;;;;;2.80;2.70;;;;;;;;;;5028304;28;20212;-59
2022/09/30 08:31:15;;;;;;;2.83;2.63;;;;;;;;;;5029081;28;20231;-61
2022/09/30 08:33:42;;;;;;;3.00;2.80;;;;;;;;;;5029420;28;20212;-60
2022/09/30 08:36:10;;;;;;;6.77;5.07;;;;;;;;;;5028892;28;20975;-60
2022/09/30 08:38:37;;;;;;;4.60;3.73;;;;;;;;;;5028356;28;20226;-60
2022/09/30 08:41:24;;;;;;;5.43;4.00;;;;;;;;;;5028848;28;20709;-59
2022/09/30 08:43:58;;;;;;;3.57;2.87;;;;;;;;;;5028746;28;20231;-60
2022/09/30 08:46:31;;;;;;;2.80;2.03;;;;;;;;;;5028373;28;20207;-60
2022/09/30 08:49:03;;;;;;;2.80;2.60;;;;;;;;;;5028955;28;20220;-60
2022/09/30 08:51:32;;;;;;;2.63;2.43;;;;;;;;;;5028292;28;20299;-58
2022/09/30 08:54:01;;;;;;;2.83;2.57;;;;;;;;;;5028474;28;20208;-57
2022/09/30 08:56:30;;;;;;;2.87;2.43;;;;;;;;;;5028361;28;20208;-57
2022/09/30 08:59:00;;;;;;;4.93;1.83;;;;;;;;;;5028515;28;20209;-57
2022/09/30 09:01:29;;;;;;;1.93;1.80;;;;;;;;;;5024282;28;20536;-57
2022/09/30 09:03:57;;;;;;;5.80;1.90;;;;;;;;;;5029054;28;20223;-56
2022/09/30 09:06:27;;;;;;;2.10;1.90;;;;;;;;;;5027523;28;20228;-57
2022/09/30 09:09:08;;;;;;;1.60;1.60;;;;;;;;;;5028451;28;20677;-57
2022/09/30 09:11:43;;;;;;;1.90;1.80;;;;;;;;;;5028077;28;20213;-58
2022/09/30 09:14:13;;;;;;;1.47;1.40;;;;;;;;;;5027334;28;20204;-58
2022/09/30 09:16:43;;;;;;;1.97;1.93;;;;;;;;;;5027781;28;20215;-58
2022/09/30 09:19:11;;;;;;;1.85;1.77;;;;;;;;;;5027930;28;20269;-57
2022/09/30 09:21:42;;;;;;;1.60;1.50;;;;;;;;;;5027477;28;20208;-57
2022/09/30 09:24:14;;;;;;;2.33;1.70;;;;;;;;;;5026344;28;20208;-57
2022/09/30 09:26:43;;;;;;;1.80;1.70;;;;;;;;;;5027743;28;20228;-57
2022/09/30 09:29:19;;;;;;;1.80;1.70;;;;;;;;;;5027758;28;20208;-58
2022/09/30 09:31:47;;;;;;;1.73;1.63;;;;;;;;;;5027588;28;20733;-58
2022/09/30 09:34:14;;;;;;;1.50;1.40;;;;;;;;;;5027138;28;20254;-58
2022/09/30 09:36:47;;;;;;;1.30;1.30;;;;;;;;;;5027484;28;20850;-58
2022/09/30 09:39:20;;;;;;;1.80;1.80;;;;;;;;;;5022519;28;20223;-58
2022/09/30 09:41:53;;;;;;;1.85;1.67;;;;;;;;;;5025758;28;20215;-58
2022/09/30 09:44:25;;;;;;;2.05;1.95;;;;;;;;;;5026869;28;20204;-58
2022/09/30 09:46:55;;;;;;;1.25;1.25;;;;;;;;;;5027024;28;20211;-58
2022/09/30 09:49:30;;;;;;;1.50;1.40;;;;;;;;;;5025765;28;20307;-58
2022/09/30 09:52:04;;;;;;;1.67;1.58;;;;;;;;;;5027822;28;20231;-58
2022/09/30 09:54:34;;;;;;;1.65;1.60;;;;;;;;;;5028671;28;20204;-58
2022/09/30 09:57:08;;;;;;;1.63;1.52;;;;;;;;;;5047713;28;20666;-58
2022/09/30 09:59:35;;;;;;;2.17;1.40;;;;;;;;;;5029934;28;20234;-57
2022/09/30 10:04:49;;;;;;;1.38;1.38;;;;;;;;;;5017782;28;20766;-58
2022/09/30 10:07:20;;;;;;;1.38;1.27;;;;;;;;;;5028252;28;20291;-58
2022/09/30 10:09:47;;;;;;;1.48;1.48;;;;;;;;;;5026107;28;20212;-58
2022/09/30 10:12:26;;;;;;;1.00;1.00;;;;;;;;;;5027315;28;20690;-59
2022/09/30 10:14:57;;;;;;;1.50;1.50;;;;;;;;;;5027818;28;20236;-59
2022/09/30 10:17:28;;;;;;;1.85;1.30;;;;;;;;;;5025739;28;20702;-58
2022/09/30 10:19:58;;;;;;;1.63;1.52;;;;;;;;;;5027949;28;20315;-58
2022/09/30 10:22:27;;;;;;;4.07;1.38;;;;;;;;;;5027679;28;20212;-59
2022/09/30 10:25:09;;;;;;;1.30;1.30;;;;;;;;;;5027567;28;20208;-59
2022/09/30 10:27:37;;;;;;;2.60;1.20;;;;;;;;;;5027384;28;20204;-59
2022/09/30 10:30:05;;;;;;;2.15;1.23;;;;;;;;;;5027588;28;20208;-58
2022/09/30 10:32:32;;;;;;;1.58;1.48;;;;;;;;;;5022992;28;20212;-60
2022/09/30 10:35:03;;;;;;;2.97;1.90;;;;;;;;;;5027712;28;20227;-59
2022/09/30 10:37:30;;;;;;;1.60;1.45;;;;;;;;;;5008264;28;20224;-58
2022/09/30 10:40:00;;;;;;;2.28;1.00;;;;;;;;;;5015624;28;20231;-58
2022/09/30 10:42:28;;;;;;;1.15;1.15;;;;;;;;;;5026952;28;20208;-58
2022/09/30 10:44:57;;;;;;;2.97;1.10;;;;;;;;;;5024473;28;20216;-58
2022/09/30 10:47:26;;;;;;;1.17;1.17;;;;;;;;;;5026855;28;20679;-59
2022/09/30 10:49:55;;;;;;;1.13;1.10;;;;;;;;;;5027610;28;20300;-58
2022/09/30 10:52:23;;;;;;;1.30;1.30;;;;;;;;;;5027363;28;20200;-59
2022/09/30 10:54:52;;;;;;;1.48;1.48;;;;;;;;;;5008015;28;20687;-58
2022/09/30 10:57:21;;;;;;;1.48;1.45;;;;;;;;;;5021484;28;20599;-59
2022/09/30 10:59:48;;;;;;;1.30;1.30;;;;;;;;;;5027542;28;20286;-59
2022/09/30 11:02:23;;;;;;;1.17;1.00;;;;;;;;;;5028969;28;20215;-59
2022/09/30 11:04:57;;;;;;;1.95;1.23;;;;;;;;;;5031510;28;20215;-59
2022/09/30 11:07:28;;;;;;;1.15;1.05;;;;;;;;;;5029182;28;20243;-59
2022/09/30 11:09:58;;;;;;;0.90;0.90;;;;;;;;;;5030584;28;20224;-58
2022/09/30 11:12:29;;;;;;;0.65;0.65;;;;;;;;;;5030322;28;20208;-58
2022/09/30 11:15:02;;;;;;;1.15;1.15;;;;;;;;;;5031593;28;20216;-59
2022/09/30 11:17:33;;;;;;;1.63;0.90;;;;;;;;;;5029082;28;20212;-58
2022/09/30 11:20:08;;;;;;;1.00;0.85;;;;;;;;;;5031012;28;20228;-58
2022/09/30 11:22:39;;;;;;;0.60;0.60;;;;;;;;;;5030555;28;20311;-59
2022/09/30 11:25:07;;;;;;;0.70;0.70;;;;;;;;;;5030545;28;20215;-59
2022/09/30 11:27:42;;;;;;;0.80;0.80;;;;;;;;;;5030634;28;20216;-59
2022/09/30 11:30:12;;;;;;;1.10;0.82;;;;;;;;;;5030514;28;20211;-59
2022/09/30 11:32:47;;;;;;;1.02;1.02;;;;;;;;;;5030411;28;20235;-59
2022/09/30 11:35:24;;;;;;;2.45;0.80;;;;;;;;;;5030702;28;20216;-59
2022/09/30 11:38:00;;;;;;;0.70;0.70;;;;;;;;;;5030385;28;20223;-59
2022/09/30 11:40:31;;;;;;;1.75;0.70;;;;;;;;;;5030377;28;20647;-59
2022/09/30 11:43:04;;;;;;;0.40;0.40;;;;;;;;;;5030414;28;20204;-59
2022/09/30 11:45:36;;;;;;;1.38;0.60;;;;;;;;;;5030426;28;20220;-59
2022/09/30 11:48:14;;;;;;;0.60;0.60;;;;;;;;;;5030300;28;20212;-59
2022/09/30 11:50:53;;;;;;;0.77;0.77;;;;;;;;;;5030028;28;20211;-59
2022/09/30 11:53:26;;;;;;;0.63;0.63;;;;;;;;;;5030033;28;20247;-59
2022/09/30 11:55:58;;;;;;;0.93;0.65;;;;;;;;;;5030076;28;20212;-60
2022/09/30 11:58:26;;;;;;;1.02;0.47;;;;;;;;;;5030027;28;20212;-59
2022/09/30 12:00:56;;;;;;;2.15;0.70;;;;;;;;;;5029293;28;20229;-60
2022/09/30 12:03:27;;;;;;;0.60;0.60;;;;;;;;;;5029999;28;20239;-60
2022/09/30 12:05:56;;;;;;;1.55;0.50;;;;;;;;;;5030021;28;20205;-60
2022/09/30 12:08:27;;;;;;;0.60;0.60;;;;;;;;;;5030082;28;20212;-57
2022/09/30 12:10:55;;;;;;;0.68;0.68;;;;;;;;;;5028971;28;20579;-59
2022/09/30 12:13:24;;;;;;;0.68;0.68;;;;;;;;;;5029124;28;20219;-59
2022/09/30 12:15:54;;;;;;;1.45;1.02;;;;;;;;;;5029857;28;20270;-59
2022/09/30 12:18:22;;;;;;;1.00;0.80;;;;;;;;;;5030009;28;20247;-59
2022/09/30 12:20:52;;;;;;;1.38;1.13;;;;;;;;;;5029897;28;20232;-59
2022/09/30 12:23:20;;;;;;;1.10;1.00;;;;;;;;;;5030034;28;20215;-59
2022/09/30 12:25:50;;;;;;;0.52;0.52;;;;;;;;;;5028856;28;20263;-59
2022/09/30 12:31:14;;;;;;;0.60;0.60;;;;;;;;;;5029546;28;20207;-59
2022/09/30 12:33:53;;;;;;;1.45;0.70;;;;;;;;;;5029607;28;20209;-59
2022/09/30 12:36:31;;;;;;;1.10;1.05;;;;;;;;;;5029349;28;20218;-58
2022/09/30 12:39:26;;;;;;;2.30;1.00;;;;;;;;;;5029313;28;20214;-59
2022/09/30 12:42:00;;;;;;;1.98;0.90;;;;;;;;;;5029214;28;20327;-59
2022/09/30 12:44:42;;;;;;;0.98;0.98;;;;;;;;;;5029235;28;20235;-59
2022/09/30 12:47:15;;;;;;;0.95;0.95;;;;;;;;;;5026791;28;20219;-59
2022/09/30 12:49:42;;;;;;;0.88;0.82;;;;;;;;;;5022791;28;20208;-59
2022/09/30 12:52:15;;;;;;;0.75;0.75;;;;;;;;;;5023983;28;20208;-58
2022/09/30 12:54:43;;;;;;;0.93;0.70;;;;;;;;;;5014482;28;20240;-60
2022/09/30 12:57:11;;;;;;;1.35;0.60;;;;;;;;;;5009392;28;20208;-60
2022/09/30 12:59:39;;;;;;;0.70;0.70;;;;;;;;;;5009335;28;20216;-58
2022/09/30 13:02:08;;;;;;;0.77;0.77;;;;;;;;;;5008748;28;20224;-60
2022/09/30 13:04:36;;;;;;;0.60;0.60;;;;;;;;;;5009026;28;20239;-58
2022/09/30 13:07:17;;;;;;;0.80;0.80;;;;;;;;;;5008722;28;20308;-58
2022/09/30 13:09:58;;;;;;;2.25;0.70;;;;;;;;;;5008957;28;20258;-57
2022/09/30 13:12:26;;;;;;;0.63;0.63;;;;;;;;;;5025824;28;20204;-58
2022/09/30 13:15:08;;;;;;;1.52;0.95;;;;;;;;;;5027924;28;20208;-60
2022/09/30 13:17:35;;;;;;;0.95;0.93;;;;;;;;;;5027255;28;20208;-57
2022/09/30 13:20:02;;;;;;;2.38;0.90;;;;;;;;;;5025698;28;20212;-57
2022/09/30 13:22:53;;;;;;;0.85;0.85;;;;;;;;;;5027201;28;20228;-57
2022/09/30 13:25:22;;;;;;;0.90;0.90;;;;;;;;;;5027373;28;20243;-56
2022/09/30 13:27:52;;;;;;;0.50;0.50;;;;;;;;;;5028427;28;20223;-59
2022/09/30 13:30:36;;;;;;;1.00;1.00;;;;;;;;;;5028683;28;20255;-57
2022/09/30 13:33:26;;;;;;;2.85;0.68;;;;;;;;;;5008746;28;20750;-58
2022/09/30 13:35:57;;;;;;;0.60;0.60;;;;;;;;;;5025034;28;20205;-59
2022/09/30 13:38:34;;;;;;;1.85;0.70;;;;;;;;;;5027729;28;20575;-60
2022/09/30 13:41:05;;;;;;;0.70;0.70;;;;;;;;;;5028332;28;20242;-59
2022/09/30 13:43:34;;;;;;;0.55;0.55;;;;;;;;;;5028406;28;20222;-59
2022/09/30 13:46:06;;;;;;;0.70;0.70;;;;;;;;;;5028548;28;20212;-58
2022/09/30 13:48:35;;;;;;;1.42;0.80;;;;;;;;;;5027735;28;20211;-59
2022/09/30 13:51:07;;;;;;;1.52;0.60;;;;;;;;;;5027742;28;20212;-57
2022/09/30 13:53:36;;;;;;;0.70;0.70;;;;;;;;;;5027377;28;20209;-57
2022/09/30 13:56:07;;;;;;;1.38;0.60;;;;;;;;;;5028005;28;20215;-57
2022/09/30 13:58:52;;;;;;;3.00;0.90;;;;;;;;;;5027952;28;20204;-58
2022/09/30 14:01:25;;;;;;;0.50;0.50;;;;;;;;;;5027572;28;20337;-57
2022/09/30 14:04:11;;;;;;;3.53;0.65;;;;;;;;;;5027703;28;20278;-57
2022/09/30 14:06:45;;;;;;;0.77;0.77;;;;;;;;;;5027776;28;20231;-57
2022/09/30 14:09:18;;;;;;;0.65;0.65;;;;;;;;;;5027694;28;20236;-60
2022/09/30 14:11:53;;;;;;;0.63;0.63;;;;;;;;;;5027538;28;20219;-57
2022/09/30 14:14:34;;;;;;;0.63;0.63;;;;;;;;;;5027994;28;20739;-57
2022/09/30 14:17:16;;;;;;;0.63;0.63;;;;;;;;;;5027708;28;20216;-59
2022/09/30 14:19:56;;;;;;;0.75;0.75;;;;;;;;;;5025388;28;20211;-59
2022/09/30 14:22:25;;;;;;;0.70;0.70;;;;;;;;;;5026803;28;20227;-58
2022/09/30 14:24:53;;;;;;;1.77;0.60;;;;;;;;;;5027458;28;20212;-59
2022/09/30 14:27:26;;;;;;;0.60;0.60;;;;;;;;;;5027647;28;20244;-58
2022/09/30 14:29:58;;;;;;;0.75;0.65;;;;;;;;;;5027799;28;20215;-57
2022/09/30 14:32:27;;;;;;;0.50;0.50;;;;;;;;;;5027529;28;20212;-57
2022/09/30 14:34:55;;;;;;;1.58;0.90;;;;;;;;;;5027412;28;20231;-57
2022/09/30 14:37:28;;;;;;;1.55;0.77;;;;;;;;;;5028761;28;20224;-56
2022/09/30 14:39:55;;;;;;;1.75;0.70;;;;;;;;;;5031626;28;20208;-56
2022/09/30 14:42:28;;;;;;;0.57;0.57;;;;;;;;;;5031360;28;20228;-61
2022/09/30 14:45:01;;;;;;;0.90;0.90;;;;;;;;;;5031668;28;20750;-61
2022/09/30 14:47:30;;;;;;;1.08;0.80;;;;;;;;;;5031376;28;20204;-63
2022/09/30 14:49:58;;;;;;;0.75;0.57;;;;;;;;;;5031156;28;20270;-60
2022/09/30 14:52:35;;;;;;;0.68;0.68;;;;;;;;;;5030813;28;20222;-58
2022/09/30 14:55:03;;;;;;;0.50;0.50;;;;;;;;;;5031681;28;20239;-58
2022/09/30 14:57:33;;;;;;;0.50;0.50;;;;;;;;;;5030882;28;20235;-60
2022/09/30 15:00:15;;;;;;;0.60;0.60;;;;;;;;;;5030221;28;20279;-59
2022/09/30 15:02:45;;;;;;;0.52;0.52;;;;;;;;;;5030758;28;20239;-59
2022/09/30 15:05:13;;;;;;;2.90;0.75;;;;;;;;;;5030785;28;20619;-59
2022/09/30 15:07:40;;;;;;;0.60;0.60;;;;;;;;;;5030241;28;20216;-59
2022/09/30 15:10:08;;;;;;;0.50;0.50;;;;;;;;;;5030528;28;20200;-61